Time;durP1;ratioP1;P1;durP2;ratioP2;P2;SDS_P1;SDS_P2;PMS_P1;PMS_P2;Temp;Humidity;BMP_temperature;BMP_pressure;BME280_temperature;BME280_humidity;BME280_pressure;Samples;Min_cycle;Max_cycle;Signal;HPM_P1;HPM_P2
2020/12/24 00:02:17;;;;;;;0.30;0.20;;;;;;;10.13;100.00;99624.03;5034091;28;20439;-76
2020/12/24 00:04:43;;;;;;;0.30;0.20;;;;;;;10.07;100.00;99618.97;5038109;28;20447;-76
2020/12/24 00:07:09;;;;;;;0.30;0.20;;;;;;;10.17;100.00;99612.38;5035993;28;20951;-77
2020/12/24 00:09:36;;;;;;;0.30;0.20;;;;;;;10.15;100.00;99631.97;5036351;28;20443;-76
2020/12/24 00:12:02;;;;;;;0.30;0.20;;;;;;;10.22;100.00;99636.13;5034542;28;20455;-76
2020/12/24 00:14:28;;;;;;;0.30;0.20;;;;;;;10.00;100.00;99646.66;5034972;28;20460;-76
2020/12/24 00:16:54;;;;;;;0.30;0.20;;;;;;;10.13;100.00;99642.63;5036253;28;20471;-77
2020/12/24 00:19:20;;;;;;;0.30;0.20;;;;;;;9.93;100.00;99635.41;5035861;28;20451;-77
2020/12/24 00:21:47;;;;;;;0.30;0.20;;;;;;;9.97;100.00;99617.56;5035491;28;20941;-77
2020/12/24 00:24:14;;;;;;;0.30;0.20;;;;;;;10.00;100.00;99617.44;5035782;28;20501;-77
2020/12/24 00:26:40;;;;;;;0.30;0.20;;;;;;;9.84;100.00;99632.19;5035644;28;20527;-76
2020/12/24 00:29:08;;;;;;;0.30;0.20;;;;;;;9.87;100.00;99616.16;5034555;28;20529;-76
2020/12/24 00:31:34;;;;;;;0.30;0.20;;;;;;;10.09;100.00;99633.03;5034467;28;20510;-77
2020/12/24 00:34:01;;;;;;;0.30;0.20;;;;;;;9.77;100.00;99613.84;5036678;28;20442;-76
2020/12/24 00:36:28;;;;;;;0.30;0.20;;;;;;;9.83;100.00;99631.34;5035746;28;20452;-77
2020/12/24 00:38:54;;;;;;;0.30;0.20;;;;;;;9.79;100.00;99612.00;5035789;28;20447;-76
2020/12/24 00:41:21;;;;;;;0.30;0.20;;;;;;;9.78;100.00;99615.59;5034151;28;20463;-76
2020/12/24 00:43:47;;;;;;;0.30;0.20;;;;;;;9.86;100.00;99609.13;5034343;28;20455;-76
2020/12/24 00:46:13;;;;;;;0.30;0.20;;;;;;;9.91;100.00;99623.09;5038319;28;20482;-77
2020/12/24 00:48:39;;;;;;;0.30;0.20;;;;;;;10.00;100.00;99617.44;5036088;28;20978;-76
2020/12/24 00:51:05;;;;;;;6.73;0.97;;;;;;;9.84;100.00;99603.00;5033901;28;20447;-76
2020/12/24 00:53:32;;;;;;;0.30;0.20;;;;;;;9.91;100.00;99602.75;5036384;28;20998;-77
2020/12/24 00:55:58;;;;;;;0.30;0.20;;;;;;;9.85;100.00;99607.38;5033873;28;20459;-77
2020/12/24 00:58:24;;;;;;;0.30;0.20;;;;;;;9.86;100.00;99601.16;5035455;28;20465;-76
2020/12/24 01:00:50;;;;;;;0.30;0.20;;;;;;;9.83;100.00;99617.19;5034622;28;20426;-76
2020/12/24 01:03:17;;;;;;;0.30;0.20;;;;;;;9.72;100.00;99621.09;5036250;28;20462;-76
2020/12/24 01:05:43;;;;;;;0.30;0.20;;;;;;;9.82;100.00;99636.72;5034340;28;20434;-76
2020/12/24 01:08:13;;;;;;;0.30;0.20;;;;;;;9.57;100.00;99634.06;5015864;28;20474;-76
2020/12/24 01:10:40;;;;;;;0.30;0.20;;;;;;;9.47;100.00;99634.41;5016687;28;20507;-77
2020/12/24 01:13:06;;;;;;;0.30;0.20;;;;;;;9.38;100.00;99639.13;5035706;28;20451;-77
2020/12/24 01:15:32;;;;;;;0.30;0.20;;;;;;;9.36;100.00;99652.44;5034924;28;21002;-76
2020/12/24 01:17:58;;;;;;;0.30;0.20;;;;;;;9.42;100.00;99665.50;5034494;28;20517;-76
2020/12/24 01:20:24;;;;;;;0.30;0.20;;;;;;;9.37;100.00;99661.28;5034329;28;20471;-77
2020/12/24 01:22:50;;;;;;;0.30;0.20;;;;;;;9.42;100.00;99643.41;5032638;28;20455;-76
2020/12/24 01:25:16;;;;;;;0.30;0.20;;;;;;;9.46;100.00;99624.72;5035560;28;20811;-78
2020/12/24 01:27:42;;;;;;;0.30;0.20;;;;;;;9.37;100.00;99637.41;5038755;28;20495;-77
2020/12/24 01:30:09;;;;;;;0.30;0.20;;;;;;;9.20;100.00;99651.25;5033260;28;20452;-77
2020/12/24 01:32:35;;;;;;;0.30;0.20;;;;;;;9.35;100.00;99641.91;5033896;28;20940;-77
2020/12/24 01:35:01;;;;;;;0.30;0.20;;;;;;;9.43;100.00;99634.53;5033537;28;20765;-77
2020/12/24 01:37:27;;;;;;;0.30;0.20;;;;;;;9.37;100.00;99630.31;5035931;28;20992;-77
2020/12/24 01:39:53;;;;;;;0.30;0.20;;;;;;;9.29;100.00;99612.91;5036961;28;20514;-77
2020/12/24 01:42:20;;;;;;;0.30;0.20;;;;;;;9.40;100.00;99614.28;5035935;28;20451;-77
2020/12/24 01:44:47;;;;;;;0.30;0.20;;;;;;;9.47;100.00;99633.53;5033314;28;20448;-76
2020/12/24 01:47:15;;;;;;;0.30;0.20;;;;;;;9.46;100.00;99624.72;5034782;28;20470;-76
2020/12/24 01:49:42;;;;;;;0.30;0.20;;;;;;;9.37;100.00;99627.66;5036069;28;20487;-77
2020/12/24 01:52:30;;;;;;;0.30;0.20;;;;;;;9.31;100.00;99613.72;5033150;28;20454;-76
2020/12/24 01:54:58;;;;;;;0.30;0.20;;;;;;;9.18;100.00;99623.88;5034938;28;20463;-76
2020/12/24 01:57:24;;;;;;;0.30;0.20;;;;;;;9.39;100.00;99628.47;5033985;28;20471;-76
2020/12/24 01:59:55;;;;;;;0.30;0.20;;;;;;;9.29;100.00;99624.41;5035375;28;20517;-76
2020/12/24 02:02:23;;;;;;;0.30;0.20;;;;;;;9.36;100.00;99617.09;5034452;28;20782;-77
2020/12/24 02:04:49;;;;;;;0.30;0.20;;;;;;;9.28;100.00;99611.19;5031310;28;20880;-76
2020/12/24 02:07:18;;;;;;;0.30;0.20;;;;;;;9.38;100.00;99608.19;5034495;28;20468;-76
2020/12/24 02:09:45;;;;;;;0.30;0.20;;;;;;;9.30;100.00;99602.25;5033792;28;20494;-76
2020/12/24 02:12:12;;;;;;;0.30;0.20;;;;;;;9.11;100.00;99601.16;5034686;28;20451;-76
2020/12/24 02:14:39;;;;;;;0.30;0.20;;;;;;;9.04;100.00;99602.28;5037698;28;20865;-76
2020/12/24 02:17:05;;;;;;;0.30;0.20;;;;;;;9.25;100.00;99590.09;5036322;28;20483;-76
2020/12/24 02:19:35;;;;;;;0.30;0.20;;;;;;;9.15;100.00;99586.88;5038783;28;20475;-76
2020/12/24 02:22:02;;;;;;;0.30;0.20;;;;;;;9.25;100.00;99598.03;5039228;28;20444;-76
2020/12/24 02:24:28;;;;;;;0.30;0.20;;;;;;;9.16;100.00;99605.38;5037846;28;20447;-76
2020/12/24 02:26:55;;;;;;;0.30;0.20;;;;;;;9.16;100.00;99594.78;5038123;28;20824;-75
2020/12/24 02:29:21;;;;;;;0.30;0.20;;;;;;;9.13;100.00;99594.03;5038029;28;20988;-77
2020/12/24 02:31:48;;;;;;;0.30;0.20;;;;;;;9.07;100.00;99591.59;5039899;28;20462;-76
2020/12/24 02:34:15;;;;;;;0.30;0.20;;;;;;;9.10;100.00;99587.03;5035856;28;20486;-76
2020/12/24 02:36:41;;;;;;;0.30;0.20;;;;;;;8.98;100.00;99583.94;5038813;28;20452;-76
2020/12/24 02:39:09;;;;;;;0.30;0.20;;;;;;;9.13;100.00;99583.41;5037306;28;20503;-76
2020/12/24 02:41:35;;;;;;;0.30;0.20;;;;;;;9.03;100.00;99589.94;5036738;28;20863;-76
2020/12/24 02:44:02;;;;;;;0.30;0.20;;;;;;;8.96;99.74;99593.72;5032442;28;20451;-76
2020/12/24 02:46:28;;;;;;;0.30;0.20;;;;;;;8.83;100.00;99593.25;5030800;28;20868;-76
2020/12/24 02:48:54;;;;;;;0.30;0.20;;;;;;;8.89;100.00;99574.50;5034507;28;20597;-76
2020/12/24 02:51:20;;;;;;;0.30;0.20;;;;;;;8.86;100.00;99582.56;5034355;28;20818;-76
2020/12/24 02:53:47;;;;;;;0.30;0.20;;;;;;;8.91;98.91;99580.63;5034286;28;21077;-76
2020/12/24 02:56:13;;;;;;;0.30;0.20;;;;;;;9.07;98.73;99581.00;5035496;28;20811;-76
2020/12/24 02:58:39;;;;;;;0.30;0.20;;;;;;;9.07;98.65;99575.69;5034262;28;20471;-76
2020/12/24 03:01:05;;;;;;;0.30;0.20;;;;;;;8.97;98.54;99574.25;5034650;28;20456;-76
2020/12/24 03:03:32;;;;;;;0.30;0.20;;;;;;;9.13;99.27;99578.97;5034391;28;20448;-76
2020/12/24 03:05:58;;;;;;;0.30;0.20;;;;;;;8.98;100.00;99573.34;5034839;28;20563;-76
2020/12/24 03:08:27;;;;;;;0.30;0.20;;;;;;;9.03;99.70;99564.28;5033911;28;20527;-76
2020/12/24 03:10:53;;;;;;;0.30;0.20;;;;;;;8.82;99.30;99565.03;5035141;28;20451;-76
2020/12/24 03:13:19;;;;;;;0.30;0.20;;;;;;;8.79;99.91;99557.19;5034744;28;20851;-76
2020/12/24 03:15:45;;;;;;;0.30;0.20;;;;;;;8.87;99.96;99557.78;5035062;28;20456;-76
2020/12/24 03:18:11;;;;;;;0.30;0.20;;;;;;;8.96;98.86;99546.88;5034992;28;20476;-76
2020/12/24 03:20:37;;;;;;;0.30;0.20;;;;;;;8.74;99.79;99554.66;5035028;28;20478;-76
2020/12/24 03:23:04;;;;;;;0.30;0.20;;;;;;;8.96;99.70;99536.28;5034496;28;20464;-76
2020/12/24 03:25:30;;;;;;;0.30;0.20;;;;;;;8.87;98.12;99539.22;5034934;28;20448;-76
2020/12/24 03:27:56;;;;;;;0.30;0.20;;;;;;;8.95;98.90;99541.63;5033261;28;20837;-76
2020/12/24 03:30:22;;;;;;;0.30;0.20;;;;;;;8.76;99.12;99536.94;5034680;28;20439;-76
2020/12/24 03:32:48;;;;;;;0.30;0.20;;;;;;;8.79;99.07;99530.69;5034519;28;20451;-77
2020/12/24 03:35:14;;;;;;;0.30;0.20;;;;;;;8.84;99.82;99529.59;5034796;28;20458;-77
2020/12/24 03:37:41;;;;;;;0.30;0.20;;;;;;;8.93;100.00;99522.28;5034298;28;20467;-76
2020/12/24 03:40:08;;;;;;;0.30;0.20;;;;;;;8.77;99.18;99517.50;5033698;28;20452;-77
2020/12/24 03:42:35;;;;;;;0.30;0.20;;;;;;;8.69;99.82;99529.25;5034556;28;20804;-78
2020/12/24 03:45:02;;;;;;;0.30;0.20;;;;;;;8.55;100.00;99517.34;5033353;28;20482;-76
2020/12/24 03:47:28;;;;;;;0.30;0.20;;;;;;;8.74;100.00;99514.06;5034376;28;20478;-77
2020/12/24 03:49:54;;;;;;;0.30;0.20;;;;;;;8.40;100.00;99511.69;5034432;28;20553;-78
2020/12/24 03:52:20;;;;;;;0.30;0.20;;;;;;;8.82;100.00;99510.25;5034478;28;20448;-77
2020/12/24 03:54:46;;;;;;;0.30;0.20;;;;;;;8.59;100.00;99520.75;5034089;28;20867;-77
2020/12/24 03:57:12;;;;;;;0.30;0.20;;;;;;;8.60;99.05;99507.44;5032743;28;20468;-76
2020/12/24 03:59:39;;;;;;;0.30;0.20;;;;;;;8.80;99.96;99511.22;5033135;28;20448;-77
2020/12/24 04:02:05;;;;;;;0.30;0.20;;;;;;;8.68;99.40;99509.00;5034434;28;20463;-77
2020/12/24 04:04:31;;;;;;;0.30;0.20;;;;;;;8.54;100.00;99499.72;5032830;28;20448;-77
2020/12/24 04:06:57;;;;;;;0.30;0.20;;;;;;;8.43;100.00;99508.91;5032670;28;20471;-77
2020/12/24 04:09:23;;;;;;;0.30;0.20;;;;;;;8.37;100.00;99506.50;5032427;28;20642;-76
2020/12/24 04:11:49;;;;;;;0.30;0.20;;;;;;;8.31;100.00;99500.41;5032922;28;20454;-77
2020/12/24 04:14:16;;;;;;;0.30;0.20;;;;;;;8.13;100.00;99501.00;5032751;28;20445;-77
2020/12/24 04:16:42;;;;;;;0.30;0.20;;;;;;;8.07;100.00;99508.25;5032604;28;20455;-76
2020/12/24 04:19:08;;;;;;;0.30;0.20;;;;;;;7.98;100.00;99486.47;5032615;28;20502;-77
2020/12/24 04:21:34;;;;;;;0.30;0.20;;;;;;;8.03;100.00;99495.13;5033733;28;20543;-76
2020/12/24 04:24:00;;;;;;;0.30;0.20;;;;;;;7.95;100.00;99493.66;5032208;28;20944;-76
2020/12/24 04:26:26;;;;;;;0.30;0.20;;;;;;;7.79;100.00;99497.66;5032743;28;20460;-77
2020/12/24 04:28:52;;;;;;;0.30;0.20;;;;;;;7.90;100.00;99490.25;5033455;28;20541;-77
2020/12/24 04:31:18;;;;;;;0.30;0.20;;;;;;;8.10;100.00;99476.44;5032501;28;20452;-76
2020/12/24 04:33:45;;;;;;;0.30;0.20;;;;;;;8.01;100.00;99478.44;5032144;28;20452;-77
2020/12/24 04:36:13;;;;;;;0.30;0.20;;;;;;;8.02;100.00;99469.59;5031723;28;20554;-76
2020/12/24 04:38:40;;;;;;;0.30;0.20;;;;;;;7.98;100.00;99473.25;5033391;28;20463;-76
2020/12/24 04:41:06;;;;;;;0.30;0.20;;;;;;;7.91;100.00;99460.25;5032311;28;20451;-77
2020/12/24 04:43:33;;;;;;;0.30;0.20;;;;;;;8.12;100.00;99453.41;5033060;28;20456;-76
2020/12/24 04:46:00;;;;;;;0.30;0.20;;;;;;;8.06;100.00;99461.53;5015073;28;20927;-76
2020/12/24 04:48:26;;;;;;;0.30;0.20;;;;;;;8.25;100.00;99449.47;5030632;28;20537;-77
2020/12/24 04:50:53;;;;;;;0.30;0.20;;;;;;;8.45;100.00;99456.75;5032171;28;20474;-77
2020/12/24 04:53:20;;;;;;;0.30;0.20;;;;;;;8.33;100.00;99469.47;5031635;28;20455;-77
2020/12/24 04:55:47;;;;;;;0.30;0.20;;;;;;;8.47;100.00;99471.69;5032814;28;20518;-77
2020/12/24 04:58:13;;;;;;;0.30;0.20;;;;;;;8.46;100.00;99472.59;5033115;28;20491;-75
2020/12/24 05:00:39;;;;;;;0.30;0.20;;;;;;;8.70;99.47;99464.75;5033235;28;20859;-76
2020/12/24 05:03:10;;;;;;;0.30;0.20;;;;;;;8.59;99.21;99473.06;5031916;28;20455;-76
2020/12/24 05:05:38;;;;;;;0.30;0.20;;;;;;;8.52;100.00;99459.16;5033255;28;20452;-76
2020/12/24 05:08:06;;;;;;;0.30;0.20;;;;;;;8.51;99.31;99456.59;5031798;28;20506;-75
2020/12/24 05:10:33;;;;;;;0.30;0.20;;;;;;;8.67;98.86;99454.28;5031639;28;20460;-76
2020/12/24 05:13:14;;;;;;;0.30;0.20;;;;;;;8.56;99.45;99449.34;5031672;28;20933;-76
2020/12/24 05:15:40;;;;;;;0.30;0.20;;;;;;;8.69;99.14;99441.84;5032591;28;20443;-76
2020/12/24 05:18:26;;;;;;;0.30;0.20;;;;;;;8.88;98.88;99443.78;5031538;28;21007;-76
2020/12/24 05:20:52;;;;;;;0.30;0.20;;;;;;;8.75;98.14;99434.53;5032856;28;20561;-76
2020/12/24 05:23:21;;;;;;;0.30;0.20;;;;;;;8.79;97.97;99443.25;5031542;28;20455;-77
2020/12/24 05:25:48;;;;;;;0.30;0.20;;;;;;;8.90;98.68;99441.06;5032896;28;20452;-76
2020/12/24 05:28:26;;;;;;;0.30;0.20;;;;;;;8.88;98.15;99448.22;5032817;28;20484;-76
2020/12/24 05:30:54;;;;;;;0.30;0.20;;;;;;;8.82;98.27;99435.19;5019680;28;20447;-76
2020/12/24 05:33:32;;;;;;;0.30;0.20;;;;;;;8.92;99.48;99430.44;5031446;28;20866;-76
2020/12/24 05:36:14;;;;;;;0.30;0.20;;;;;;;8.96;100.00;99438.22;5031327;28;20439;-76
2020/12/24 05:38:40;;;;;;;0.93;0.90;;;;;;;8.72;100.00;99436.41;5031842;28;20467;-74
2020/12/24 05:41:32;;;;;;;0.30;0.20;;;;;;;8.85;100.00;99437.72;5032682;28;20451;-76
2020/12/24 05:44:05;;;;;;;0.30;0.20;;;;;;;8.76;100.00;99440.69;5030159;28;20440;-75
2020/12/24 05:46:42;;;;;;;0.30;0.20;;;;;;;8.75;100.00;99437.16;5029203;28;20436;-76
2020/12/24 05:49:10;;;;;;;0.30;0.20;;;;;;;8.85;100.00;99437.72;5035432;28;20478;-74
2020/12/24 05:51:59;;;;;;;0.30;0.20;;;;;;;8.93;100.00;99440.97;5036439;28;20452;-75
2020/12/24 05:54:28;;;;;;;0.30;0.20;;;;;;;9.03;100.00;99444.16;5036177;28;20471;-76
2020/12/24 05:56:55;;;;;;;0.30;0.20;;;;;;;8.91;100.00;99432.22;5035495;28;20873;-75
2020/12/24 05:59:24;;;;;;;0.30;0.20;;;;;;;9.01;100.00;99446.84;5037265;28;20828;-75
2020/12/24 06:02:06;;;;;;;0.30;0.20;;;;;;;8.84;100.00;99447.47;5035814;28;20454;-76
2020/12/24 06:04:42;;;;;;;0.30;0.20;;;;;;;8.73;100.00;99448.75;5034916;28;20440;-75
2020/12/24 06:07:09;;;;;;;0.30;0.20;;;;;;;8.72;100.00;99433.78;5036052;28;20463;-75
2020/12/24 06:09:37;;;;;;;0.30;0.20;;;;;;;8.67;100.00;99439.25;5035831;28;20574;-76
2020/12/24 06:12:24;;;;;;;0.30;0.20;;;;;;;8.52;100.00;99427.41;5035994;28;20443;-75
2020/12/24 06:14:55;;;;;;;0.30;0.20;;;;;;;8.57;100.00;99440.47;5023499;28;20494;-76
2020/12/24 06:17:23;;;;;;;0.30;0.20;;;;;;;8.48;100.00;99424.88;5036212;28;20468;-76
2020/12/24 06:19:50;;;;;;;0.30;0.20;;;;;;;8.41;100.00;99429.53;5034508;28;20447;-76
2020/12/24 06:22:17;;;;;;;0.30;0.20;;;;;;;8.31;100.00;99430.72;5035571;28;20455;-76
2020/12/24 06:24:50;;;;;;;0.30;0.20;;;;;;;8.35;100.00;99428.84;5034819;28;20462;-76
2020/12/24 06:27:28;;;;;;;0.30;0.20;;;;;;;8.38;100.00;99427.00;5034639;28;20823;-76
2020/12/24 06:30:08;;;;;;;0.30;0.20;;;;;;;8.35;100.00;99415.63;5034336;28;20487;-76
2020/12/24 06:32:46;;;;;;;0.30;0.20;;;;;;;8.49;100.00;99421.31;5024219;28;20498;-76
2020/12/24 06:35:36;;;;;;;0.30;0.20;;;;;;;8.37;100.00;99412.03;5035748;28;20452;-76
2020/12/24 06:38:08;;;;;;;0.30;0.20;;;;;;;8.42;100.00;99419.81;5035318;28;20463;-76
2020/12/24 06:40:39;;;;;;;0.30;0.20;;;;;;;8.46;100.00;99422.28;5034285;28;20451;-76
2020/12/24 06:43:07;;;;;;;0.30;0.20;;;;;;;8.47;100.00;99418.72;5029510;28;20444;-76
2020/12/24 06:45:34;;;;;;;0.30;0.20;;;;;;;8.57;100.00;99428.09;5034192;28;20464;-77
2020/12/24 06:48:15;;;;;;;0.30;0.20;;;;;;;8.40;100.00;99424.28;5035085;28;20472;-77
2020/12/24 06:50:43;;;;;;;0.30;0.20;;;;;;;8.44;100.00;99416.19;5034251;28;20451;-76
2020/12/24 06:53:39;;;;;;;0.30;0.20;;;;;;;8.57;100.00;99417.50;5035932;28;20824;-76
2020/12/24 06:56:15;;;;;;;0.33;0.20;;;;;;;8.51;100.00;99420.38;5033664;28;20953;-76
2020/12/24 06:58:42;;;;;;;0.30;0.20;;;;;;;8.44;100.00;99425.91;5032502;28;20467;-76
2020/12/24 07:01:26;;;;;;;0.30;0.20;;;;;;;8.43;100.00;99421.53;5034793;28;20815;-76
2020/12/24 07:03:54;;;;;;;0.30;0.20;;;;;;;8.35;100.00;99420.91;5035129;28;20443;-77
2020/12/24 07:06:39;;;;;;;0.30;0.20;;;;;;;8.30;100.00;99421.91;5034983;28;20454;-77
2020/12/24 07:09:09;;;;;;;0.30;0.20;;;;;;;8.32;100.00;99420.06;5034682;28;20480;-77
2020/12/24 07:11:50;;;;;;;0.30;0.20;;;;;;;8.29;100.00;99421.97;5033533;28;20957;-77
2020/12/24 07:14:39;;;;;;;0.30;0.20;;;;;;;8.40;100.00;99429.59;5034685;28;20447;-77
2020/12/24 07:17:10;;;;;;;0.30;0.20;;;;;;;8.35;100.00;99421.78;5034793;28;20463;-76
2020/12/24 07:19:45;;;;;;;0.30;0.20;;;;;;;8.30;100.00;99424.56;5022371;28;20447;-76
2020/12/24 07:22:16;;;;;;;0.30;0.20;;;;;;;8.43;100.00;99430.34;5034894;28;20447;-77
2020/12/24 07:24:47;;;;;;;0.30;0.20;;;;;;;8.33;100.00;99431.53;5033752;28;20451;-77
2020/12/24 07:27:13;;;;;;;0.30;0.20;;;;;;;8.46;100.00;99424.06;5033512;28;20859;-77
2020/12/24 07:29:46;;;;;;;0.30;0.20;;;;;;;8.42;100.00;99422.44;5033231;28;20499;-76
2020/12/24 07:32:13;;;;;;;0.30;0.20;;;;;;;8.29;100.00;99427.25;5034367;28;20501;-76
2020/12/24 07:34:39;;;;;;;0.30;0.20;;;;;;;8.37;100.00;99435.00;5034520;28;20498;-76
2020/12/24 07:37:07;;;;;;;0.30;0.20;;;;;;;8.30;100.00;99431.63;5034946;28;20471;-78
2020/12/24 07:39:34;;;;;;;0.30;0.20;;;;;;;8.30;100.00;99432.50;5034522;28;20448;-77
2020/12/24 07:42:00;;;;;;;0.30;0.20;;;;;;;8.38;100.00;99434.06;5033049;28;20471;-77
2020/12/24 07:44:26;;;;;;;0.30;0.20;;;;;;;8.36;100.00;99428.84;5034548;28;20505;-77
2020/12/24 07:47:00;;;;;;;0.30;0.20;;;;;;;8.36;100.00;99434.13;5033002;28;20471;-77
2020/12/24 07:49:26;;;;;;;0.30;0.20;;;;;;;8.20;100.00;99433.72;5033786;28;20471;-77
2020/12/24 07:51:57;;;;;;;0.30;0.20;;;;;;;8.31;100.00;99431.56;5032972;28;20452;-77
2020/12/24 07:54:33;;;;;;;0.30;0.20;;;;;;;8.41;100.00;99445.41;5033775;28;20957;-77
2020/12/24 07:56:59;;;;;;;0.30;0.20;;;;;;;8.45;100.00;99446.19;5012823;28;20515;-77
2020/12/24 07:59:25;;;;;;;0.30;0.20;;;;;;;8.22;100.00;99452.19;5027876;28;20474;-78
2020/12/24 08:02:01;;;;;;;0.30;0.20;;;;;;;7.98;100.00;99460.03;5033906;28;20484;-77
2020/12/24 08:04:28;;;;;;;0.30;0.20;;;;;;;8.09;100.00;99445.59;5033847;28;20447;-77
2020/12/24 08:06:54;;;;;;;0.30;0.20;;;;;;;8.01;100.00;99451.09;5033868;28;20468;-77
2020/12/24 08:09:20;;;;;;;0.30;0.20;;;;;;;8.18;100.00;99440.84;5033674;28;20503;-76
2020/12/24 08:11:55;;;;;;;0.30;0.20;;;;;;;8.11;100.00;99449.03;5032684;28;20443;-77
2020/12/24 08:14:26;;;;;;;0.30;0.20;;;;;;;8.15;100.00;99463.91;5032514;28;20447;-76
2020/12/24 08:17:04;;;;;;;0.30;0.20;;;;;;;8.37;100.00;99448.22;5033490;28;20464;-77
2020/12/24 08:19:40;;;;;;;0.30;0.20;;;;;;;8.22;100.00;99437.19;5020686;28;20443;-78
2020/12/24 08:22:32;;;;;;;0.30;0.20;;;;;;;8.22;100.00;99454.84;5032289;28;20505;-77
2020/12/24 08:25:00;;;;;;;0.30;0.20;;;;;;;8.35;100.00;99460.63;5032807;28;20443;-76
2020/12/24 08:27:26;;;;;;;0.30;0.20;;;;;;;8.34;100.00;99465.06;5034424;28;20518;-77
2020/12/24 08:29:54;;;;;;;0.30;0.20;;;;;;;8.29;100.00;99456.38;5032993;28;20488;-77
2020/12/24 08:32:20;;;;;;;3.60;3.40;;;;;;;8.42;100.00;99449.78;5034769;28;20479;-77
2020/12/24 08:34:46;;;;;;;0.30;0.20;;;;;;;8.40;100.00;99451.63;5034582;28;20463;-77
2020/12/24 08:37:12;;;;;;;0.30;0.20;;;;;;;8.26;100.00;99440.59;5034644;28;20487;-77
2020/12/24 08:39:38;;;;;;;0.30;0.20;;;;;;;8.35;100.00;99461.50;5036026;28;20924;-77
2020/12/24 08:42:16;;;;;;;0.30;0.20;;;;;;;8.42;100.00;99449.78;5034608;28;20864;-77
2020/12/24 08:44:42;;;;;;;0.30;0.20;;;;;;;8.55;100.00;99453.75;5026134;28;20441;-77
2020/12/24 08:47:09;;;;;;;0.30;0.20;;;;;;;8.49;100.00;99461.03;5034867;28;20463;-77
2020/12/24 08:49:41;;;;;;;0.30;0.20;;;;;;;8.47;100.00;99442.56;5034571;28;20491;-77
2020/12/24 08:52:17;;;;;;;0.30;0.20;;;;;;;8.52;100.00;99461.81;5033987;28;20448;-76
2020/12/24 08:55:04;;;;;;;0.30;0.20;;;;;;;8.49;100.00;99463.69;5036027;28;20471;-79
2020/12/24 08:57:31;;;;;;;0.30;0.20;;;;;;;8.21;100.00;99461.91;5036657;28;20555;-77
2020/12/24 08:59:59;;;;;;;0.30;0.20;;;;;;;8.36;100.00;99463.25;5035710;28;20451;-79
2020/12/24 09:02:32;;;;;;;0.30;0.20;;;;;;;8.41;100.00;99471.03;5036223;28;20451;-79
2020/12/24 09:05:00;;;;;;;0.30;0.20;;;;;;;8.17;100.00;99465.56;5022847;28;20447;-79
2020/12/24 09:07:31;;;;;;;0.30;0.20;;;;;;;8.32;100.00;99475.66;5034409;28;20525;-77
2020/12/24 09:10:01;;;;;;;0.30;0.20;;;;;;;8.32;100.00;99467.72;5033885;28;20858;-77
2020/12/24 09:12:28;;;;;;;0.30;0.20;;;;;;;8.31;100.00;99465.13;5035438;28;20511;-79
2020/12/24 09:14:59;;;;;;;0.30;0.20;;;;;;;8.34;100.00;99473.00;5034972;28;20452;-79
2020/12/24 09:17:25;;;;;;;0.30;0.20;;;;;;;8.28;100.00;99467.88;5036655;28;20476;-79
2020/12/24 09:20:01;;;;;;;0.30;0.20;;;;;;;8.35;100.00;99480.03;5036792;28;20937;-79
2020/12/24 09:22:27;;;;;;;0.30;0.20;;;;;;;8.47;100.00;99476.13;5037728;28;20444;-79
2020/12/24 09:24:53;;;;;;;0.30;0.20;;;;;;;8.49;100.00;99491.03;5039002;28;20467;-77
2020/12/24 09:27:19;;;;;;;0.30;0.20;;;;;;;8.52;100.00;99490.09;5035051;28;20526;-78
2020/12/24 09:29:46;;;;;;;0.30;0.20;;;;;;;8.43;100.00;99475.34;5037135;28;20522;-78
2020/12/24 09:32:13;;;;;;;0.30;0.20;;;;;;;8.48;100.00;99491.94;5036024;28;20448;-78
2020/12/24 09:34:39;;;;;;;0.30;0.20;;;;;;;8.53;100.00;99497.13;5037966;28;20458;-78
2020/12/24 09:37:05;;;;;;;0.30;0.20;;;;;;;8.60;100.00;99502.16;5040834;28;20541;-77
2020/12/24 09:39:32;;;;;;;0.30;0.20;;;;;;;8.60;100.00;99503.94;5039498;28;20532;-77
2020/12/24 09:42:00;;;;;;;0.30;0.20;;;;;;;8.54;100.00;99491.78;5040492;28;20455;-78
2020/12/24 09:44:26;;;;;;;0.30;0.20;;;;;;;8.70;100.00;99504.50;5039353;28;20447;-78
2020/12/24 09:46:52;;;;;;;0.30;0.20;;;;;;;8.68;100.00;99511.63;5038883;28;20463;-77
2020/12/24 09:49:19;;;;;;;0.30;0.20;;;;;;;8.72;100.00;99507.97;5040570;28;20487;-77
2020/12/24 09:51:47;;;;;;;0.30;0.20;;;;;;;8.75;100.00;99514.00;5038915;28;20510;-77
2020/12/24 09:54:28;;;;;;;0.30;0.20;;;;;;;8.74;100.00;99514.06;5039565;28;20462;-78
2020/12/24 09:56:56;;;;;;;0.30;0.20;;;;;;;8.66;100.00;99517.00;5039647;28;20988;-78
2020/12/24 09:59:22;;;;;;;0.30;0.20;;;;;;;8.55;100.00;99527.06;5038591;28;20976;-78
2020/12/24 10:01:51;;;;;;;0.30;0.20;;;;;;;8.68;100.00;99539.00;5038344;28;20456;-77
2020/12/24 10:04:17;;;;;;;0.30;0.20;;;;;;;8.70;100.00;99536.28;5038106;28;20439;-78
2020/12/24 10:06:44;;;;;;;0.30;0.20;;;;;;;8.72;100.00;99532.66;5038038;28;20447;-78
2020/12/24 10:09:13;;;;;;;0.30;0.20;;;;;;;8.86;100.00;99521.59;5036658;28;20967;-77
2020/12/24 10:11:44;;;;;;;0.30;0.20;;;;;;;8.80;100.00;99528.00;5036020;28;20448;-77
2020/12/24 10:14:10;;;;;;;0.30;0.20;;;;;;;8.77;100.00;99514.84;5036829;28;20956;-77
2020/12/24 10:16:36;;;;;;;0.30;0.20;;;;;;;8.88;100.00;99517.97;5035615;28;20452;-77
2020/12/24 10:19:03;;;;;;;0.30;0.20;;;;;;;8.87;100.00;99520.69;5035560;28;20971;-77
2020/12/24 10:21:29;;;;;;;0.30;0.20;;;;;;;8.84;100.00;99531.41;5035993;28;20835;-77
2020/12/24 10:24:13;;;;;;;0.30;0.20;;;;;;;8.86;100.00;99521.59;5035553;28;20551;-77
2020/12/24 10:26:39;;;;;;;0.30;0.20;;;;;;;8.77;100.00;99529.84;5034884;28;20815;-77
2020/12/24 10:29:05;;;;;;;0.30;0.20;;;;;;;8.94;100.00;99529.31;5035219;28;20487;-78
2020/12/24 10:31:31;;;;;;;0.30;0.20;;;;;;;9.00;100.00;99523.78;5035422;28;20456;-77
2020/12/24 10:33:57;;;;;;;0.30;0.20;;;;;;;8.74;100.00;99524.66;5035187;28;20933;-77
2020/12/24 10:36:25;;;;;;;0.30;0.20;;;;;;;8.74;100.00;99535.25;5036846;28;20842;-77
2020/12/24 10:38:51;;;;;;;0.30;0.20;;;;;;;8.86;100.00;99541.03;5035441;28;20463;-77
2020/12/24 10:41:18;;;;;;;0.30;0.20;;;;;;;8.67;100.00;99534.63;5036034;28;20529;-77
2020/12/24 10:43:44;;;;;;;0.30;0.20;;;;;;;8.66;100.00;99527.59;5037140;28;20452;-77
2020/12/24 10:46:21;;;;;;;0.30;0.20;;;;;;;8.76;100.00;99533.41;5038327;28;20451;-77
2020/12/24 10:48:48;;;;;;;0.30;0.20;;;;;;;8.79;100.00;99526.25;5023350;28;20491;-76
2020/12/24 10:51:17;;;;;;;0.30;0.20;;;;;;;8.78;100.00;99534.25;5037807;28;20440;-77
2020/12/24 10:53:48;;;;;;;0.30;0.20;;;;;;;8.69;100.00;99527.47;5036130;28;20448;-77
2020/12/24 10:56:17;;;;;;;0.30;0.20;;;;;;;8.86;100.00;99540.16;5035892;28;20513;-76
2020/12/24 10:58:44;;;;;;;0.30;0.20;;;;;;;8.82;100.00;99541.19;5025432;28;20464;-76
2020/12/24 11:01:12;;;;;;;0.30;0.20;;;;;;;8.70;100.00;99549.53;5036350;28;20451;-78
2020/12/24 11:03:38;;;;;;;0.30;0.20;;;;;;;8.76;100.00;99528.13;5035886;28;20455;-76
2020/12/24 11:06:06;;;;;;;0.30;0.20;;;;;;;8.86;100.00;99530.41;5035972;28;20452;-77
2020/12/24 11:08:34;;;;;;;0.30;0.20;;;;;;;8.81;100.00;99523.56;5036699;28;20486;-77
2020/12/24 11:11:01;;;;;;;0.30;0.20;;;;;;;8.96;100.00;99525.69;5036614;28;20434;-77
2020/12/24 11:13:28;;;;;;;0.30;0.20;;;;;;;8.99;100.00;99530.88;5037073;28;20451;-77
2020/12/24 11:15:54;;;;;;;0.30;0.20;;;;;;;8.90;100.00;99539.13;5034632;28;20455;-77
2020/12/24 11:18:20;;;;;;;0.30;0.20;;;;;;;8.91;100.00;99543.53;5036529;28;20464;-76
2020/12/24 11:20:46;;;;;;;0.30;0.20;;;;;;;8.99;100.00;99537.94;5035635;28;21003;-78
2020/12/24 11:23:12;;;;;;;0.30;0.20;;;;;;;9.13;100.00;99546.28;5036528;28;20455;-77
2020/12/24 11:25:38;;;;;;;0.30;0.20;;;;;;;9.19;100.00;99541.66;5035116;28;20444;-78
2020/12/24 11:28:04;;;;;;;0.30;0.20;;;;;;;9.13;100.00;99544.50;5035454;28;20476;-77
2020/12/24 11:30:32;;;;;;;0.30;0.20;;;;;;;9.16;100.00;99543.53;5035021;28;20487;-77
2020/12/24 11:32:59;;;;;;;0.30;0.20;;;;;;;9.27;100.00;99545.81;5036635;28;20444;-77
2020/12/24 11:35:25;;;;;;;0.30;0.20;;;;;;;9.42;100.00;99542.63;5035796;28;20455;-77
2020/12/24 11:37:52;;;;;;;0.30;0.20;;;;;;;9.39;100.00;99534.78;5035725;28;20486;-76
2020/12/24 11:40:18;;;;;;;0.30;0.20;;;;;;;9.43;100.00;99539.03;5033172;28;20444;-76
2020/12/24 11:42:45;;;;;;;0.30;0.20;;;;;;;9.54;100.00;99528.91;5033991;28;20483;-77